createdAt,value
2023-02-17T03:15:14.248Z,51.111351
2023-02-17T03:16:13.696Z,51.111305
2023-02-17T03:17:13.630Z,51.111324
2023-02-17T03:18:13.525Z,51.111305
2023-02-17T03:19:13.430Z,51.111294
2023-02-17T03:20:13.485Z,51.111301
2023-02-17T03:21:13.425Z,51.111305
2023-02-17T03:22:13.460Z,51.111324
2023-02-17T03:23:13.394Z,51.111301
2023-02-17T03:24:13.433Z,51.111294
2023-02-17T03:25:13.291Z,51.111294
2023-02-17T03:26:13.321Z,51.111313
2023-02-17T03:27:13.340Z,51.111301
2023-02-17T03:28:52.637Z,51.111294
2023-02-17T03:29:13.997Z,51.111305
2023-02-17T03:33:23.047Z,51.111324
2023-02-17T03:34:23.034Z,51.111328
2023-02-17T03:35:22.461Z,51.111332
2023-02-17T03:36:22.436Z,51.111332
2023-02-17T03:37:22.432Z,51.111317
2023-02-17T03:38:58.862Z,51.111336
2023-02-17T03:39:23.072Z,51.111340
2023-02-17T03:40:23.014Z,51.111359
2023-02-17T03:41:22.353Z,51.111351
2023-02-17T03:42:22.374Z,51.111271
2023-02-17T03:43:22.393Z,51.111290
2023-02-17T03:44:22.315Z,51.111294
2023-02-17T03:45:22.530Z,51.111328
2023-02-17T03:46:22.272Z,51.111332
2023-02-17T03:47:22.392Z,51.111298
2023-02-17T03:48:22.335Z,51.111336
2023-02-17T03:49:22.407Z,51.111351
2023-02-17T03:50:22.372Z,51.111324
2023-02-17T03:51:22.361Z,51.111324
2023-02-17T03:52:22.158Z,51.111320
2023-02-17T03:53:22.291Z,51.111317
2023-02-17T03:54:22.230Z,51.111370
2023-02-17T03:55:23.259Z,51.111385
2023-02-17T03:56:57.589Z,51.111359
2023-02-17T03:57:23.060Z,51.111340
2023-02-17T03:58:23.166Z,51.111317
2023-02-17T03:59:22.467Z,51.111340
2023-02-17T04:00:22.223Z,51.111275
2023-02-17T04:01:22.206Z,51.111343
2023-02-17T04:02:22.196Z,51.111320
2023-02-17T04:03:22.790Z,51.111328
2023-02-17T04:04:22.286Z,51.111351
2023-02-17T04:05:22.151Z,51.111359
2023-02-17T04:06:22.094Z,51.111336
2023-02-17T04:07:22.010Z,51.111317
2023-02-17T04:08:22.114Z,51.111347
2023-02-17T04:09:22.018Z,51.111351
2023-02-17T04:10:22.057Z,51.111320
2023-02-17T04:11:22.112Z,51.111317
2023-02-17T04:13:06.161Z,51.111324
2023-02-17T04:13:22.959Z,51.111340
2023-02-17T04:14:22.128Z,51.111359
2023-02-17T04:15:23.143Z,51.111320
2023-02-17T04:16:22.042Z,51.111328
2023-02-17T04:18:12.875Z,51.111328
2023-02-17T04:18:23.029Z,51.111340
2023-02-17T04:19:22.707Z,51.111301
2023-02-17T04:20:22.199Z,51.111294
2023-02-17T04:21:22.192Z,51.111366
2023-02-17T04:22:22.104Z,51.111301
2023-02-17T04:24:02.619Z,51.111275
2023-02-17T04:24:21.940Z,51.111313
2023-02-17T04:25:22.076Z,51.111313
2023-02-17T04:26:22.086Z,51.111340
2023-02-17T04:27:22.138Z,51.111317
2023-02-17T04:28:22.175Z,51.111294
2023-02-17T04:29:22.072Z,51.111275
2023-02-17T04:30:22.123Z,51.111263
2023-02-17T04:31:22.226Z,51.111286
2023-02-17T04:32:22.005Z,51.111305
2023-02-17T04:38:38.114Z,51.111301
2023-02-17T04:41:47.745Z,51.111279
2023-02-17T04:42:47.465Z,51.111290
2023-02-17T04:43:46.724Z,51.111294
2023-02-17T04:44:46.797Z,51.111279
2023-02-17T04:45:46.753Z,51.111259
2023-02-17T04:46:47.942Z,51.111252
2023-02-17T04:47:46.732Z,51.111279
2023-02-17T04:48:46.957Z,51.111271
2023-02-17T04:49:46.650Z,51.111290
2023-02-17T04:50:46.706Z,51.111279
2023-02-17T04:51:46.644Z,51.111271
2023-02-17T04:52:46.645Z,51.111259
2023-02-17T04:54:36.985Z,51.111244
2023-02-17T04:54:47.308Z,51.111263
2023-02-17T04:55:46.971Z,51.111263
2023-02-17T05:02:46.404Z,51.111240
2023-02-17T05:02:58.843Z,51.111248
2023-02-17T05:07:06.930Z,51.111267
2023-02-17T05:09:05.826Z,51.111248
2023-02-17T05:10:09.959Z,51.111252
2023-02-17T05:11:05.996Z,51.111271
2023-02-17T05:15:51.097Z,51.111229
2023-02-17T05:16:50.633Z,51.111259
2023-02-17T05:17:50.518Z,51.111259
2023-02-17T05:18:50.257Z,51.111267
2023-02-17T05:19:50.297Z,51.111271
2023-02-17T05:23:37.758Z,51.111275
2023-02-17T05:24:38.805Z,51.111275
2023-02-17T05:25:37.981Z,51.111267
2023-02-17T05:26:36.855Z,51.111286
2023-02-17T05:27:36.780Z,51.111271
2023-02-17T05:28:36.819Z,51.111275
2023-02-17T05:29:36.778Z,51.111237
2023-02-17T05:30:36.804Z,51.111237
2023-02-17T05:32:17.406Z,51.111252
2023-02-17T05:32:36.707Z,51.111271
2023-02-17T05:33:36.823Z,51.111267
2023-02-17T05:34:36.918Z,51.111256
2023-02-17T05:35:36.865Z,51.111237
2023-02-17T05:36:36.685Z,51.111271
2023-02-17T05:37:37.093Z,51.111256
2023-02-17T05:38:36.861Z,51.111217
2023-02-17T05:39:36.643Z,51.111256
2023-02-17T05:41:15.818Z,51.111271
2023-02-17T05:41:37.441Z,51.111290
2023-02-17T05:42:37.726Z,51.111240
2023-02-17T05:43:36.659Z,51.111191
2023-02-17T05:44:36.736Z,51.111252
2023-02-17T05:45:36.625Z,51.111263
2023-02-17T05:46:36.654Z,51.111275
2023-02-17T05:51:45.141Z,51.111240
2023-02-17T05:52:44.994Z,51.111286
2023-02-17T05:53:44.126Z,51.111279
2023-02-17T05:54:44.144Z,51.111198
2023-02-17T05:58:49.959Z,51.111179
2023-02-17T05:59:49.236Z,51.111332
2023-02-17T06:05:28.575Z,51.111221
2023-02-17T07:38:51.318Z,51.111286
